createdAt,value
2019-02-26T00:00:47.257Z,33.63
2019-02-26T00:03:19.896Z,32.50
2019-02-26T00:05:51.793Z,33.90
2019-02-26T00:08:21.851Z,34.43
2019-02-26T00:10:54.753Z,34.83
2019-02-26T00:13:25.080Z,32.97
2019-02-26T00:15:55.868Z,33.87
2019-02-26T00:18:25.485Z,35.37
2019-02-26T00:20:56.670Z,34.07
2019-02-26T00:23:29.678Z,34.97
2019-02-26T00:25:59.305Z,34.13
2019-02-26T00:28:28.965Z,35.27
2019-02-26T00:30:59.518Z,33.83
2019-02-26T00:33:30.210Z,33.80
2019-02-26T00:35:59.813Z,32.87
2019-02-26T00:38:29.448Z,42.15
2019-02-26T00:41:01.540Z,37.03
2019-02-26T00:43:32.299Z,36.73
2019-02-26T00:46:03.150Z,34.60
2019-02-26T00:48:34.168Z,33.60
2019-02-26T00:51:05.141Z,34.27
2019-02-26T00:53:34.770Z,33.97
2019-02-26T00:56:05.724Z,33.97
2019-02-26T00:58:38.963Z,35.70
2019-02-26T01:01:10.225Z,34.70
2019-02-26T01:03:40.673Z,35.13
2019-02-26T01:06:10.377Z,34.20
2019-02-26T01:08:42.524Z,34.50
2019-02-26T01:11:11.951Z,36.30
2019-02-26T01:13:41.572Z,35.60
2019-02-26T01:16:11.479Z,36.37
2019-02-26T01:18:42.174Z,35.67
2019-02-26T01:21:12.731Z,36.70
2019-02-26T01:23:42.967Z,36.73
2019-02-26T01:26:12.812Z,34.67
2019-02-26T01:28:46.152Z,36.83
2019-02-26T01:31:13.840Z,35.87
2019-02-26T01:33:43.456Z,37.07
2019-02-26T01:36:13.988Z,35.10
2019-02-26T01:38:46.306Z,35.73
2019-02-26T01:41:17.846Z,35.80
2019-02-26T01:43:47.513Z,35.43
2019-02-26T01:46:18.792Z,33.87
2019-02-26T01:48:48.557Z,36.30
2019-02-26T01:51:20.027Z,34.43
2019-02-26T01:53:51.909Z,35.80
2019-02-26T01:56:22.206Z,36.17
2019-02-26T01:58:56.623Z,35.07
2019-02-26T02:01:23.858Z,37.37
2019-02-26T02:03:56.118Z,37.53
2019-02-26T02:06:25.780Z,38.17
2019-02-26T02:08:55.783Z,39.63
2019-02-26T02:11:30.626Z,37.60
2019-02-26T02:14:01.871Z,37.97
2019-02-26T02:16:31.400Z,37.57
2019-02-26T02:19:01.310Z,37.80
2019-02-26T02:21:33.809Z,37.80
2019-02-26T02:24:05.746Z,36.73
2019-02-26T02:26:35.306Z,39.10
2019-02-26T02:29:05.152Z,37.87
2019-02-26T02:31:37.610Z,35.17
2019-02-26T02:34:06.108Z,34.07
2019-02-26T02:36:35.723Z,34.03
2019-02-26T02:39:10.399Z,33.03
2019-02-26T02:41:39.364Z,35.33
2019-02-26T02:44:12.335Z,36.70
2019-02-26T02:46:42.528Z,36.10
2019-02-26T02:49:13.278Z,36.37
2019-02-26T02:51:43.328Z,36.07
2019-02-26T02:54:15.447Z,37.10
2019-02-26T02:56:44.533Z,35.73
2019-02-26T02:59:16.455Z,35.43
2019-02-26T03:01:48.374Z,36.70
2019-02-26T03:04:19.602Z,39.37
2019-02-26T03:06:50.174Z,38.93
2019-02-26T03:09:19.856Z,40.10
2019-02-26T03:11:51.912Z,40.43
2019-02-26T03:14:20.810Z,41.87
2019-02-26T03:16:51.430Z,44.17
2019-02-26T03:19:21.781Z,44.93
2019-02-26T03:21:52.645Z,45.83
2019-02-26T03:24:25.363Z,49.03
2019-02-26T03:26:54.086Z,49.17
2019-02-26T03:29:24.036Z,48.10
2019-02-26T03:31:55.484Z,48.43
2019-02-26T03:34:25.777Z,49.33
2019-02-26T03:36:59.653Z,48.57
2019-02-26T03:39:28.692Z,48.23
2019-02-26T03:41:58.665Z,49.70
2019-02-26T03:44:30.359Z,50.63
2019-02-26T03:47:00.110Z,50.13
2019-02-26T03:49:30.200Z,50.40
2019-02-26T03:52:00.300Z,50.90
2019-02-26T03:54:30.202Z,50.27
2019-02-26T03:56:59.836Z,50.60
2019-02-26T03:59:29.908Z,50.90
2019-02-26T04:01:59.807Z,50.17
2019-02-26T04:04:31.126Z,49.17
2019-02-26T04:07:01.305Z,48.73
2019-02-26T04:09:32.638Z,46.93
2019-02-26T04:12:02.624Z,48.40
2019-02-26T04:14:32.237Z,47.87
2019-02-26T04:17:04.124Z,47.77
2019-02-26T04:19:33.455Z,49.03
2019-02-26T04:22:26.422Z,47.93
2019-02-26T04:25:01.512Z,45.77
2019-02-26T04:27:56.985Z,45.00
2019-02-26T04:31:07.093Z,46.83
2019-02-26T04:34:19.658Z,45.37
2019-02-26T04:37:12.954Z,45.53
2019-02-26T04:40:20.079Z,45.23
2019-02-26T04:43:31.310Z,44.30
2019-02-26T04:46:42.330Z,45.43
2019-02-26T04:49:11.935Z,44.23
2019-02-26T04:51:44.505Z,44.73
2019-02-26T04:54:17.551Z,44.43
2019-02-26T04:56:45.126Z,44.53
2019-02-26T04:59:17.018Z,45.00
2019-02-26T05:01:49.240Z,45.23
2019-02-26T05:04:18.834Z,46.63
2019-02-26T05:06:48.786Z,47.20
2019-02-26T05:09:18.740Z,45.00
2019-02-26T05:11:48.644Z,43.93
2019-02-26T05:14:23.022Z,46.20
2019-02-26T05:16:49.814Z,45.60
2019-02-26T05:19:21.762Z,44.30
2019-02-26T05:21:50.799Z,44.07
2019-02-26T05:24:21.815Z,45.97
2019-02-26T05:26:51.956Z,46.40
2019-02-26T05:29:21.577Z,47.27
2019-02-26T05:32:10.780Z,47.50
2019-02-26T05:34:42.694Z,47.77
2019-02-26T05:37:13.936Z,50.37
2019-02-26T05:39:45.872Z,49.73
2019-02-26T05:42:14.801Z,52.17
2019-02-26T05:44:44.436Z,51.03
2019-02-26T05:47:16.692Z,51.50
2019-02-26T05:49:45.955Z,49.10
2019-02-26T05:52:15.744Z,46.80
2019-02-26T05:54:46.490Z,47.13
2019-02-26T05:57:26.244Z,45.07
2019-02-26T05:59:48.791Z,43.57
2019-02-26T06:02:19.638Z,44.97
2019-02-26T06:04:50.022Z,44.67
2019-02-26T06:07:24.133Z,44.90
2019-02-26T06:09:53.597Z,44.20
2019-02-26T06:12:23.510Z,45.43
2019-02-26T06:14:54.147Z,45.17
2019-02-26T06:17:24.773Z,45.50
2019-02-26T06:19:57.113Z,45.00
2019-02-26T06:22:29.218Z,45.73
2019-02-26T06:25:00.310Z,43.57
2019-02-26T06:27:31.021Z,46.67
2019-02-26T06:30:03.183Z,45.60
2019-02-26T06:32:35.208Z,47.53
2019-02-26T06:35:08.518Z,46.87
2019-02-26T06:37:40.279Z,43.53
2019-02-26T06:40:10.603Z,44.63
2019-02-26T06:42:40.435Z,44.60
2019-02-26T06:45:13.909Z,44.27
2019-02-26T06:47:45.614Z,43.60
2019-02-26T06:50:18.538Z,44.17
2019-02-26T06:52:48.627Z,44.67
2019-02-26T06:55:18.901Z,45.70
2019-02-26T06:57:50.880Z,46.33
2019-02-26T07:00:22.288Z,44.40
2019-02-26T07:02:51.467Z,48.50
2019-02-26T07:05:23.895Z,48.57
2019-02-26T07:07:55.067Z,46.97
2019-02-26T07:10:26.308Z,47.83
2019-02-26T07:12:55.664Z,46.90
2019-02-26T07:15:28.776Z,49.50
2019-02-26T07:18:00.108Z,48.90
2019-02-26T07:20:34.111Z,48.23
2019-02-26T07:23:00.685Z,47.27
2019-02-26T07:25:31.794Z,49.70
2019-02-26T07:28:02.955Z,49.10
2019-02-26T07:30:34.695Z,49.50
2019-02-26T07:33:05.340Z,50.77
2019-02-26T07:35:37.333Z,51.27
2019-02-26T07:38:06.996Z,50.47
2019-02-26T07:40:38.636Z,53.83
2019-02-26T07:43:09.849Z,52.30
2019-02-26T07:45:39.485Z,51.60
2019-02-26T07:48:09.203Z,51.30
2019-02-26T07:50:41.556Z,51.40
2019-02-26T07:53:12.233Z,47.77
2019-02-26T07:55:42.421Z,49.40
2019-02-26T07:58:13.741Z,46.97
2019-02-26T08:00:49.177Z,48.87
2019-02-26T08:03:17.392Z,43.97
2019-02-26T08:05:47.172Z,44.60
2019-02-26T08:08:18.728Z,45.23
2019-02-26T08:10:48.943Z,45.57
2019-02-26T08:13:19.485Z,45.93
2019-02-26T08:15:49.116Z,43.03
2019-02-26T08:18:18.728Z,44.67
2019-02-26T08:20:48.351Z,43.07
2019-02-26T08:23:19.891Z,40.90
2019-02-26T08:25:50.044Z,40.03
2019-02-26T08:28:23.016Z,42.17
2019-02-26T08:30:54.690Z,43.50
2019-02-26T08:33:24.061Z,40.93
2019-02-26T08:35:56.150Z,40.13
2019-02-26T08:38:29.432Z,39.80
2019-02-26T08:40:56.592Z,39.40
2019-02-26T08:43:26.339Z,39.03
2019-02-26T08:45:56.275Z,38.80
2019-02-26T08:48:27.040Z,40.17
2019-02-26T08:51:00.922Z,38.63
2019-02-26T08:53:29.623Z,39.37
2019-02-26T08:56:01.951Z,40.13
2019-02-26T08:58:31.485Z,39.27
2019-02-26T09:01:01.109Z,38.07
2019-02-26T09:03:40.175Z,38.23
2019-02-26T09:06:10.865Z,37.77
2019-02-26T09:08:35.590Z,38.43
2019-02-26T09:11:06.272Z,36.73
2019-02-26T09:13:38.690Z,37.30
2019-02-26T09:16:08.040Z,37.57
2019-02-26T09:18:40.182Z,37.17
2019-02-26T09:21:10.250Z,37.30
2019-02-26T09:23:40.778Z,36.00
2019-02-26T09:26:10.390Z,35.63
2019-02-26T09:28:40.002Z,36.13
2019-02-26T09:31:11.689Z,34.90
2019-02-26T09:33:43.569Z,34.27
2019-02-26T09:36:15.193Z,35.03
2019-02-26T09:38:44.977Z,32.87
2019-02-26T09:41:16.624Z,33.23
2019-02-26T09:43:48.111Z,33.83
2019-02-26T09:46:19.080Z,34.40
2019-02-26T09:48:49.170Z,32.53
2019-02-26T09:51:19.153Z,32.43
2019-02-26T09:53:50.097Z,33.17
2019-02-26T09:56:20.094Z,32.67
2019-02-26T09:58:50.861Z,33.13
2019-02-26T10:01:20.666Z,30.83
2019-02-26T10:03:50.293Z,33.03
2019-02-26T10:06:21.615Z,31.40
2019-02-26T10:08:53.174Z,32.10
2019-02-26T10:11:23.176Z,32.43
2019-02-26T10:13:53.961Z,31.90
2019-02-26T10:16:25.629Z,31.63
2019-02-26T10:18:56.808Z,30.93
2019-02-26T10:21:26.755Z,31.37
2019-02-26T10:23:57.666Z,32.33
2019-02-26T10:26:30.555Z,30.50
2019-02-26T10:29:04.407Z,30.23
2019-02-26T10:31:32.329Z,31.47
2019-02-26T10:34:03.033Z,30.73
2019-02-26T10:36:35.981Z,29.27
2019-02-26T10:39:07.486Z,30.10
2019-02-26T10:41:39.850Z,27.50
2019-02-26T10:44:10.326Z,28.07
2019-02-26T10:46:41.956Z,28.13
2019-02-26T10:49:12.450Z,26.90
2019-02-26T10:51:43.043Z,29.43
2019-02-26T10:54:17.631Z,29.80
2019-02-26T10:56:44.894Z,30.07
2019-02-26T10:59:15.795Z,28.07
2019-02-26T11:01:49.328Z,27.27
2019-02-26T11:04:18.220Z,27.87
2019-02-26T11:06:47.859Z,27.80
2019-02-26T11:09:21.840Z,26.83
2019-02-26T11:11:49.149Z,28.07
2019-02-26T11:14:19.480Z,27.37
2019-02-26T11:16:49.322Z,25.77
2019-02-26T11:19:19.326Z,25.23
2019-02-26T11:21:50.705Z,26.13
2019-02-26T11:24:20.273Z,22.63
2019-02-26T11:26:50.138Z,24.70
2019-02-26T11:29:19.778Z,25.03
2019-02-26T11:31:49.727Z,24.67
2019-02-26T11:34:19.511Z,25.93
2019-02-26T11:36:49.131Z,26.23
2019-02-26T11:39:18.780Z,27.47
2019-02-26T11:41:50.734Z,28.30
2019-02-26T11:44:22.654Z,28.80
2019-02-26T11:46:53.738Z,30.60
2019-02-26T11:49:23.013Z,30.30
2019-02-26T11:51:52.795Z,31.00
2019-02-26T11:54:23.248Z,28.97
2019-02-26T11:56:52.862Z,29.93
2019-02-26T11:59:22.719Z,30.73
2019-02-26T12:01:54.034Z,31.27
2019-02-26T12:04:23.728Z,30.17
2019-02-26T12:06:53.401Z,31.00
2019-02-26T12:09:23.020Z,31.03
2019-02-26T12:11:52.639Z,31.57
2019-02-26T12:14:22.408Z,30.27
2019-02-26T12:16:52.064Z,31.07
2019-02-26T12:19:23.124Z,28.90
2019-02-26T12:21:55.139Z,31.27
2019-02-26T12:24:26.433Z,29.13
2019-02-26T12:26:55.750Z,28.80
2019-02-26T12:29:25.931Z,29.63
2019-02-26T12:31:58.233Z,29.53
2019-02-26T12:34:28.444Z,30.10
2019-02-26T12:37:02.090Z,29.07
2019-02-26T12:39:31.394Z,30.13
2019-02-26T12:42:01.107Z,29.60
2019-02-26T12:44:31.891Z,30.60
2019-02-26T12:47:02.126Z,30.13
2019-02-26T12:49:35.019Z,30.67
2019-02-26T12:52:03.509Z,30.23
2019-02-26T12:54:36.451Z,30.50
2019-02-26T12:57:05.105Z,30.37
2019-02-26T12:59:34.748Z,30.47
2019-02-26T13:02:05.661Z,30.57
2019-02-26T13:04:37.719Z,31.67
2019-02-26T13:07:09.317Z,31.57
2019-02-26T13:09:46.901Z,32.97
2019-02-26T13:12:12.634Z,32.47
2019-02-26T13:14:42.716Z,31.60
2019-02-26T13:17:13.833Z,29.20
2019-02-26T13:19:43.655Z,29.90
2019-02-26T13:22:17.373Z,29.50
2019-02-26T13:24:44.942Z,27.40
2019-02-26T13:27:14.564Z,26.50
2019-02-26T13:29:53.790Z,26.27
2019-02-26T13:32:17.627Z,26.30
2019-02-26T13:34:47.132Z,25.13
2019-02-26T13:37:16.914Z,25.17
2019-02-26T13:39:46.636Z,25.33
2019-02-26T13:42:19.271Z,24.40
2019-02-26T13:44:48.551Z,22.07
2019-02-26T13:47:18.471Z,22.53
2019-02-26T13:49:48.478Z,25.33
2019-02-26T13:52:18.106Z,28.43
2019-02-26T13:54:47.712Z,26.23
2019-02-26T13:57:17.340Z,24.70
2019-02-26T13:59:46.953Z,25.60
2019-02-26T14:02:17.099Z,25.20
2019-02-26T14:04:46.782Z,24.90
2019-02-26T14:07:17.473Z,24.63
2019-02-26T14:09:47.359Z,24.60
2019-02-26T14:12:17.651Z,23.03
2019-02-26T14:14:47.645Z,23.20
2019-02-26T14:17:17.274Z,22.87
2019-02-26T14:19:47.753Z,22.47
2019-02-26T14:22:18.006Z,24.07
2019-02-26T14:24:47.692Z,23.00
2019-02-26T14:27:17.409Z,23.07
2019-02-26T14:29:47.041Z,21.03
2019-02-26T14:32:16.752Z,20.40
2019-02-26T14:34:46.548Z,19.40
2019-02-26T14:37:16.242Z,20.33
2019-02-26T14:39:46.148Z,20.30
2019-02-26T14:42:15.796Z,21.23
2019-02-26T14:44:45.423Z,20.73
2019-02-26T14:47:15.397Z,22.97
2019-02-26T14:49:45.020Z,23.13
2019-02-26T14:52:14.904Z,22.40
2019-02-26T14:54:44.600Z,23.53
2019-02-26T14:57:14.406Z,23.90
2019-02-26T14:59:44.262Z,24.27
2019-02-26T15:02:14.869Z,24.77
2019-02-26T15:04:44.840Z,21.90
2019-02-26T15:07:14.726Z,21.93
2019-02-26T15:09:44.650Z,20.17
2019-02-26T15:12:14.344Z,22.13
2019-02-26T15:14:44.486Z,23.43
2019-02-26T15:17:14.338Z,21.10
2019-02-26T15:19:49.639Z,23.00
2019-02-26T15:22:15.479Z,23.00
2019-02-26T15:24:45.691Z,23.83
2019-02-26T15:27:15.321Z,22.37
2019-02-26T15:29:45.164Z,21.60
2019-02-26T15:32:15.164Z,23.17
2019-02-26T15:34:45.042Z,21.33
2019-02-26T15:37:14.673Z,22.93
2019-02-26T15:39:44.374Z,22.57
2019-02-26T15:42:14.800Z,24.63
2019-02-26T15:44:44.416Z,26.70
2019-02-26T15:47:14.445Z,26.90
2019-02-26T15:49:44.085Z,26.80
2019-02-26T15:52:13.719Z,27.27
2019-02-26T15:54:43.346Z,27.70
2019-02-26T15:57:12.980Z,28.00
2019-02-26T15:59:42.621Z,28.03
2019-02-26T16:02:12.332Z,27.47
2019-02-26T16:04:42.189Z,27.00
2019-02-26T16:07:12.628Z,27.77
2019-02-26T16:09:42.244Z,28.50
2019-02-26T16:12:12.480Z,27.40
2019-02-26T16:14:42.392Z,29.07
2019-02-26T16:17:12.265Z,28.80
2019-02-26T16:19:43.647Z,28.67
2019-02-26T16:22:13.372Z,29.43
2019-02-26T16:24:43.536Z,29.20
2019-02-26T16:27:13.400Z,28.70
2019-02-26T16:29:43.033Z,29.97
2019-02-26T16:32:12.732Z,29.00
2019-02-26T16:34:42.367Z,20.87
2019-02-26T16:37:12.161Z,24.93
2019-02-26T16:39:42.380Z,26.50
2019-02-26T16:42:12.355Z,26.60
2019-02-26T16:44:42.752Z,27.70
2019-02-26T16:47:12.608Z,27.30
2019-02-26T16:49:44.042Z,26.57
2019-02-26T16:52:13.970Z,26.50
2019-02-26T16:54:43.633Z,26.00
2019-02-26T16:57:13.247Z,25.53
2019-02-26T16:59:43.426Z,27.03
2019-02-26T17:02:13.332Z,26.27
2019-02-26T17:04:42.964Z,26.40
2019-02-26T17:07:12.970Z,26.40
2019-02-26T17:09:42.588Z,26.40
2019-02-26T17:12:12.200Z,26.50
2019-02-26T17:14:42.218Z,26.33
2019-02-26T17:17:12.152Z,26.73
2019-02-26T17:19:41.809Z,25.77
2019-02-26T17:22:11.739Z,27.10
2019-02-26T17:24:41.412Z,26.27
2019-02-26T17:27:11.411Z,26.53
2019-02-26T17:29:42.124Z,27.23
2019-02-26T17:32:12.035Z,26.67
2019-02-26T17:34:41.661Z,27.33
2019-02-26T17:37:11.626Z,28.70
2019-02-26T17:39:41.333Z,27.60
2019-02-26T17:42:11.301Z,26.63
2019-02-26T17:44:41.285Z,26.27
2019-02-26T17:47:10.916Z,27.63
2019-02-26T17:49:40.550Z,27.03
2019-02-26T17:52:10.279Z,30.50
2019-02-26T17:54:39.938Z,29.83
2019-02-26T17:57:09.784Z,28.70
2019-02-26T17:59:39.410Z,28.77
2019-02-26T18:02:09.120Z,29.00
2019-02-26T18:04:38.767Z,27.30
2019-02-26T18:07:08.725Z,27.77
2019-02-26T18:09:38.344Z,29.43
2019-02-26T18:12:07.965Z,29.83
2019-02-26T18:14:38.884Z,31.73
2019-02-26T18:17:09.124Z,30.17
2019-02-26T18:19:38.766Z,29.20
2019-02-26T18:22:08.684Z,29.00
2019-02-26T18:24:38.305Z,29.33
2019-02-26T18:27:08.272Z,32.20
2019-02-26T18:29:37.918Z,32.07
2019-02-26T18:32:10.821Z,31.90
2019-02-26T18:34:38.956Z,30.90
2019-02-26T18:37:08.587Z,31.53
2019-02-26T18:39:38.197Z,31.23
2019-02-26T18:42:08.439Z,30.67
2019-02-26T18:44:38.353Z,32.27
2019-02-26T18:47:07.971Z,34.10
2019-02-26T18:49:37.906Z,39.50
2019-02-26T18:52:08.703Z,39.20
2019-02-26T18:54:38.858Z,39.13
2019-02-26T18:57:11.710Z,38.33
2019-02-26T18:59:41.372Z,36.33
2019-02-26T19:02:11.382Z,35.83
2019-02-26T19:04:40.989Z,33.50
2019-02-26T19:07:10.613Z,33.13
2019-02-26T19:09:42.653Z,33.23
2019-02-26T19:12:11.596Z,33.77
2019-02-26T19:14:42.243Z,34.63
2019-02-26T19:17:12.710Z,33.57
2019-02-26T19:19:42.586Z,35.23
2019-02-26T19:22:12.650Z,35.23
2019-02-26T19:24:42.488Z,34.20
2019-02-26T19:27:12.150Z,36.33
2019-02-26T19:29:41.802Z,35.50
2019-02-26T19:32:15.474Z,35.67
2019-02-26T19:34:43.135Z,35.47
2019-02-26T19:37:13.162Z,34.20
2019-02-26T19:39:42.853Z,36.57
2019-02-26T19:42:12.487Z,35.83
2019-02-26T19:44:42.416Z,36.70
2019-02-26T19:47:14.230Z,35.40
2019-02-26T19:49:43.610Z,33.90
2019-02-26T19:52:13.220Z,33.73
2019-02-26T19:54:43.105Z,33.00
2019-02-26T19:57:13.152Z,32.73
2019-02-26T19:59:46.845Z,30.47
2019-02-26T20:02:14.080Z,31.60
2019-02-26T20:04:44.966Z,33.03
2019-02-26T20:07:14.603Z,32.03
2019-02-26T20:09:44.230Z,32.63
2019-02-26T20:12:13.846Z,32.40
2019-02-26T20:14:43.561Z,30.67
2019-02-26T20:17:14.785Z,32.00
2019-02-26T20:19:44.677Z,29.63
2019-02-26T20:22:14.305Z,31.33
2019-02-26T20:24:44.022Z,31.60
2019-02-26T20:27:13.953Z,30.00
2019-02-26T20:29:43.581Z,29.80
2019-02-26T20:32:13.192Z,29.53
2019-02-26T20:34:42.815Z,31.17
2019-02-26T20:37:12.581Z,30.63
2019-02-26T20:39:44.128Z,30.37
2019-02-26T20:42:13.965Z,29.13
2019-02-26T20:44:45.456Z,29.30
2019-02-26T20:47:15.354Z,29.60
2019-02-26T20:49:46.280Z,29.20
2019-02-26T20:52:16.301Z,28.83
2019-02-26T20:54:46.110Z,28.37
2019-02-26T20:57:15.795Z,26.90
2019-02-26T20:59:45.873Z,27.70
2019-02-26T21:02:16.138Z,28.00
2019-02-26T21:04:45.756Z,29.10
2019-02-26T21:07:15.382Z,27.90
2019-02-26T21:09:45.005Z,29.73
2019-02-26T21:12:15.383Z,29.20
2019-02-26T21:14:45.349Z,28.80
2019-02-26T21:17:14.952Z,27.77
2019-02-26T21:19:45.165Z,26.80
2019-02-26T21:22:15.089Z,28.07
2019-02-26T21:24:44.711Z,28.63
2019-02-26T21:27:14.399Z,29.30
2019-02-26T21:29:44.075Z,30.63
2019-02-26T21:32:13.988Z,30.67
2019-02-26T21:34:47.394Z,29.30
2019-02-26T21:37:15.566Z,29.40
2019-02-26T21:39:45.184Z,27.93
2019-02-26T21:42:15.529Z,27.23
2019-02-26T21:44:45.142Z,27.83
2019-02-26T21:47:14.748Z,28.93
2019-02-26T21:49:46.576Z,29.23
2019-02-26T21:52:15.696Z,28.80
2019-02-26T21:54:45.638Z,29.50
2019-02-26T21:57:15.600Z,29.70
2019-02-26T21:59:49.954Z,29.57
2019-02-26T22:02:18.640Z,29.43
2019-02-26T22:04:48.152Z,30.00
2019-02-26T22:07:19.642Z,30.00
2019-02-26T22:09:49.464Z,29.77
2019-02-26T22:12:19.078Z,30.30
2019-02-26T22:14:48.697Z,29.83
2019-02-26T22:17:18.316Z,29.93
2019-02-26T22:19:47.936Z,28.47
2019-02-26T22:22:17.576Z,30.10
2019-02-26T22:24:47.215Z,30.47
2019-02-26T22:27:16.865Z,31.07
2019-02-26T22:29:48.117Z,29.80
2019-02-26T22:32:17.841Z,30.80
2019-02-26T22:34:47.445Z,30.27
2019-02-26T22:37:17.071Z,30.03
2019-02-26T22:39:46.746Z,30.07
2019-02-26T22:42:16.365Z,31.13
2019-02-26T22:44:46.250Z,31.40
2019-02-26T22:47:15.876Z,31.33
2019-02-26T22:49:45.833Z,29.80
2019-02-26T22:52:15.705Z,36.23
2019-02-26T22:54:45.335Z,34.00
2019-02-26T22:57:15.008Z,31.67
2019-02-26T22:59:44.660Z,32.70
2019-02-26T23:02:14.495Z,32.63
2019-02-26T23:04:44.344Z,30.30
2019-02-26T23:07:14.153Z,28.23
2019-02-26T23:09:44.005Z,30.53
2019-02-26T23:12:14.441Z,31.57
2019-02-26T23:14:44.299Z,31.57
2019-02-26T23:17:14.268Z,31.03
2019-02-26T23:19:43.960Z,31.73
2019-02-26T23:22:13.992Z,31.57
2019-02-26T23:24:44.389Z,30.73
2019-02-26T23:27:15.186Z,32.97
2019-02-26T23:29:46.892Z,32.63
2019-02-26T23:32:17.229Z,32.03
2019-02-26T23:35:02.728Z,33.07
2019-02-26T23:37:34.527Z,33.00
2019-02-26T23:40:05.876Z,34.30
2019-02-26T23:42:38.951Z,33.10
2019-02-26T23:45:09.149Z,33.37
2019-02-26T23:47:40.134Z,32.50
2019-02-26T23:50:10.038Z,32.67
2019-02-26T23:52:40.084Z,32.47
2019-02-26T23:55:13.280Z,31.13
2019-02-26T23:57:42.216Z,33.53
